Time;durP1;ratioP1;P1;durP2;ratioP2;P2;SDS_P1;SDS_P2;PMS_P1;PMS_P2;Temp;Humidity;BMP_temperature;BMP_pressure;BME280_temperature;BME280_humidity;BME280_pressure;Samples;Min_cycle;Max_cycle;Signal;HPM_P1;HPM_P2
2022/07/28 00:02:19;;;;;;;1.17;0.90;;;21.00;49.50;;;;;;5073578;28;20027;-82
2022/07/28 00:04:45;;;;;;;1.50;1.00;;;20.90;49.50;;;;;;5067562;28;20024;-82
2022/07/28 00:07:11;;;;;;;2.50;1.00;;;20.90;49.50;;;;;;5070271;28;20021;-82
2022/07/28 00:09:37;;;;;;;0.80;0.80;;;20.90;49.60;;;;;;5053896;28;20099;-81
2022/07/28 00:12:03;;;;;;;1.13;0.90;;;20.80;49.50;;;;;;5063454;28;20035;-82
2022/07/28 00:14:29;;;;;;;1.00;0.77;;;20.80;49.60;;;;;;5056547;28;20115;-82
2022/07/28 00:16:54;;;;;;;0.80;0.80;;;20.80;49.60;;;;;;5076181;28;20111;-82
2022/07/28 00:19:20;;;;;;;0.60;0.60;;;20.80;49.60;;;;;;5075420;28;20032;-82
2022/07/28 00:21:46;;;;;;;0.95;0.73;;;20.80;49.70;;;;;;5053882;28;20808;-83
2022/07/28 00:24:12;;;;;;;0.90;0.82;;;20.80;49.70;;;;;;5073578;28;20028;-82
2022/07/28 00:26:38;;;;;;;0.98;0.90;;;20.70;49.70;;;;;;5071686;28;20099;-82
2022/07/28 00:29:04;;;;;;;1.15;0.80;;;20.70;49.70;;;;;;5083949;28;20068;-83
2022/07/28 00:31:30;;;;;;;1.35;0.80;;;20.70;49.70;;;;;;5093661;28;20062;-82
2022/07/28 00:33:56;;;;;;;1.20;0.75;;;20.70;49.70;;;;;;5073652;28;20020;-82
2022/07/28 00:36:22;;;;;;;1.10;0.80;;;20.60;49.70;;;;;;5090471;28;20357;-82
2022/07/28 00:38:48;;;;;;;1.00;0.80;;;20.60;49.70;;;;;;5054645;28;20060;-83
2022/07/28 00:41:15;;;;;;;1.05;0.80;;;20.60;49.80;;;;;;5073846;28;20487;-82
2022/07/28 00:43:47;;;;;;;0.80;0.80;;;20.60;49.80;;;;;;5051672;28;20431;-82
2022/07/28 00:46:15;;;;;;;1.33;0.70;;;20.50;49.80;;;;;;5072200;28;20040;-83
2022/07/28 00:48:48;;;;;;;0.75;0.75;;;20.50;49.80;;;;;;5079424;28;20029;-82
2022/07/28 00:51:15;;;;;;;0.80;0.80;;;20.50;49.90;;;;;;5073197;28;20069;-82
2022/07/28 00:53:41;;;;;;;1.27;0.85;;;20.50;50.50;;;;;;5060076;28;20093;-82
2022/07/28 00:56:07;;;;;;;1.27;0.88;;;20.40;49.90;;;;;;5056878;28;20024;-81
2022/07/28 00:58:34;;;;;;;0.70;0.70;;;20.40;49.90;;;;;;5055121;28;20442;-82
2022/07/28 01:01:00;;;;;;;1.50;1.00;;;20.40;49.90;;;;;;5061756;28;20706;-83
2022/07/28 01:03:28;;;;;;;0.75;0.75;;;20.40;49.90;;;;;;5056859;28;20032;-82
2022/07/28 01:06:20;;;;;;;1.08;0.80;;;20.40;50.00;;;;;;5069979;28;20102;-82
2022/07/28 01:08:54;;;;;;;0.70;0.70;;;20.40;50.00;;;;;;5064887;28;20090;-83
2022/07/28 01:11:31;;;;;;;0.80;0.80;;;20.30;50.00;;;;;;5065624;28;20043;-85
2022/07/28 01:14:09;;;;;;;1.10;0.85;;;20.30;50.10;;;;;;5071638;28;20376;-81
2022/07/28 01:16:52;;;;;;;0.70;0.70;;;20.30;50.10;;;;;;5061081;28;20029;-82
2022/07/28 01:19:32;;;;;;;1.88;0.90;;;20.20;50.80;;;;;;5063940;28;20040;-82
2022/07/28 01:22:00;;;;;;;0.80;0.80;;;20.20;50.10;;;;;;5058949;28;20017;-81
2022/07/28 01:24:44;;;;;;;2.05;0.80;;;20.20;50.10;;;;;;5049742;28;20028;-81
2022/07/28 01:27:32;;;;;;;1.10;0.88;;;20.20;50.30;;;;;;5048597;28;20377;-82
2022/07/28 01:30:23;;;;;;;1.10;0.80;;;20.20;50.30;;;;;;5068315;28;20037;-82
2022/07/28 01:32:59;;;;;;;1.10;1.00;;;20.20;50.40;;;;;;5052635;28;20031;-82
2022/07/28 01:35:30;;;;;;;0.82;0.70;;;20.10;50.30;;;;;;5063700;28;20075;-82
2022/07/28 01:38:01;;;;;;;0.80;0.80;;;20.10;50.30;;;;;;5081554;28;20037;-81
2022/07/28 01:40:32;;;;;;;0.82;0.82;;;20.10;50.30;;;;;;5065170;28;20034;-83
2022/07/28 01:43:00;;;;;;;1.05;0.95;;;20.00;50.30;;;;;;5069740;28;20482;-81
2022/07/28 01:45:27;;;;;;;0.70;0.70;;;20.10;50.40;;;;;;5068746;28;20067;-81
2022/07/28 01:47:55;;;;;;;0.95;0.77;;;20.00;50.30;;;;;;5056106;28;20127;-83
2022/07/28 01:50:23;;;;;;;0.80;0.80;;;20.00;50.40;;;;;;5067680;28;20054;-82
2022/07/28 01:52:50;;;;;;;1.40;0.90;;;20.00;50.50;;;;;;5049573;28;20029;-81
2022/07/28 01:55:19;;;;;;;1.33;0.70;;;20.00;50.50;;;;;;5050659;28;20021;-82
2022/07/28 01:57:46;;;;;;;0.70;0.70;;;20.00;50.50;;;;;;5063437;28;20108;-81
2022/07/28 02:00:13;;;;;;;0.90;0.90;;;19.90;50.50;;;;;;5049289;28;20040;-81
2022/07/28 02:02:41;;;;;;;0.90;0.90;;;19.90;50.50;;;;;;5065654;28;20025;-80
2022/07/28 02:05:11;;;;;;;0.75;0.70;;;19.90;50.50;;;;;;5056043;28;20028;-82
2022/07/28 02:07:38;;;;;;;0.80;0.80;;;19.90;50.50;;;;;;5069687;28;20456;-82
2022/07/28 02:10:05;;;;;;;0.93;0.90;;;19.90;50.60;;;;;;5050952;28;20543;-81
2022/07/28 02:12:33;;;;;;;0.80;0.80;;;19.80;50.60;;;;;;5074643;28;20024;-81
2022/07/28 02:15:00;;;;;;;1.67;1.00;;;19.80;50.60;;;;;;5072546;28;20037;-82
2022/07/28 02:17:29;;;;;;;1.10;0.80;;;19.80;50.60;;;;;;5064603;28;20035;-81
2022/07/28 02:19:57;;;;;;;0.88;0.80;;;19.80;50.70;;;;;;5065538;28;20119;-81
2022/07/28 02:22:25;;;;;;;1.85;0.80;;;19.70;50.60;;;;;;5029714;28;20032;-82
2022/07/28 02:24:53;;;;;;;0.93;0.90;;;19.70;50.70;;;;;;5030369;28;20041;-81
2022/07/28 02:27:26;;;;;;;0.80;0.80;;;19.70;50.70;;;;;;5066733;28;20020;-82
2022/07/28 02:30:04;;;;;;;1.00;0.90;;;19.70;50.80;;;;;;5075846;28;20056;-82
2022/07/28 02:32:42;;;;;;;0.90;0.90;;;19.60;50.80;;;;;;5068219;28;20365;-81
2022/07/28 02:35:31;;;;;;;0.85;0.85;;;19.60;50.80;;;;;;5064005;28;20112;-83
2022/07/28 02:38:00;;;;;;;0.95;0.90;;;19.60;50.90;;;;;;5073604;28;20024;-82
2022/07/28 02:40:34;;;;;;;0.95;0.90;;;19.60;50.80;;;;;;5070375;28;20036;-84
2022/07/28 02:43:01;;;;;;;1.08;0.80;;;19.50;51.50;;;;;;5077447;28;20143;-82
2022/07/28 02:45:28;;;;;;;0.82;0.80;;;19.50;50.90;;;;;;5068776;28;20082;-85
2022/07/28 02:47:59;;;;;;;1.00;0.90;;;19.50;50.90;;;;;;5073645;28;20029;-81
2022/07/28 02:50:26;;;;;;;0.90;0.80;;;19.50;51.00;;;;;;5068794;28;20108;-81
2022/07/28 02:52:56;;;;;;;0.88;0.82;;;19.40;50.90;;;;;;5063055;28;20674;-83
2022/07/28 02:55:24;;;;;;;1.10;0.80;;;19.40;51.00;;;;;;5067398;28;20067;-83
2022/07/28 02:57:50;;;;;;;1.17;0.88;;;19.40;51.00;;;;;;5068675;28;20063;-82
2022/07/28 03:00:16;;;;;;;2.33;1.00;;;19.40;51.00;;;;;;5057275;28;20060;-83
2022/07/28 03:02:45;;;;;;;1.55;0.88;;;19.40;51.10;;;;;;5069298;28;20482;-82
2022/07/28 03:05:15;;;;;;;1.58;1.15;;;19.30;51.00;;;;;;5056843;28;20083;-82
2022/07/28 03:07:42;;;;;;;0.82;0.82;;;19.30;51.10;;;;;;5067424;28;20052;-82
2022/07/28 03:10:15;;;;;;;1.85;0.90;;;19.30;51.10;;;;;;5088705;28;20473;-81
2022/07/28 03:12:41;;;;;;;0.95;0.93;;;19.30;51.20;;;;;;5071695;28;20029;-82
2022/07/28 03:15:07;;;;;;;1.50;0.93;;;19.30;51.20;;;;;;5023434;28;20048;-83
2022/07/28 03:17:33;;;;;;;1.55;1.00;;;19.30;51.20;;;;;;5038940;28;20041;-83
2022/07/28 03:19:59;;;;;;;1.42;0.90;;;19.20;51.20;;;;;;5039803;28;20120;-82
2022/07/28 03:22:24;;;;;;;1.08;0.98;;;19.20;51.20;;;;;;5055680;28;20037;-81
2022/07/28 03:24:53;;;;;;;1.60;1.00;;;19.20;51.30;;;;;;5054096;28;20037;-83
2022/07/28 03:27:26;;;;;;;1.05;0.90;;;19.20;51.30;;;;;;5069275;28;20028;-83
2022/07/28 03:30:21;;;;;;;1.13;0.82;;;19.20;51.30;;;;;;5075623;28;20370;-82
2022/07/28 03:32:54;;;;;;;1.00;0.95;;;19.10;51.30;;;;;;5046592;28;20557;-82
2022/07/28 03:35:20;;;;;;;1.02;0.90;;;19.10;51.30;;;;;;5067800;28;20116;-82
2022/07/28 03:37:52;;;;;;;1.00;0.90;;;19.10;51.40;;;;;;5068976;28;20107;-84
2022/07/28 03:40:20;;;;;;;0.98;0.90;;;19.10;51.40;;;;;;5054430;28;20051;-83
2022/07/28 03:42:47;;;;;;;0.80;0.80;;;19.10;51.40;;;;;;5067380;28;20051;-83
2022/07/28 03:45:14;;;;;;;0.82;0.80;;;19.00;51.40;;;;;;5065646;28;20051;-81
2022/07/28 03:47:55;;;;;;;1.02;0.88;;;19.00;51.50;;;;;;5062505;28;20059;-82
2022/07/28 03:50:22;;;;;;;1.00;0.90;;;19.00;51.50;;;;;;5067618;28;20033;-83
2022/07/28 03:52:49;;;;;;;0.70;0.70;;;19.00;51.50;;;;;;5059214;28;20562;-83
2022/07/28 03:55:14;;;;;;;0.60;0.60;;;19.00;51.50;;;;;;5069806;28;20101;-81
2022/07/28 03:57:40;;;;;;;0.90;0.90;;;18.90;51.50;;;;;;5050574;28;20536;-82
2022/07/28 04:00:08;;;;;;;1.50;0.80;;;18.90;51.50;;;;;;5071205;28;20044;-82
2022/07/28 04:02:42;;;;;;;0.90;0.90;;;18.90;51.60;;;;;;5071127;28;20087;-81
2022/07/28 04:05:12;;;;;;;1.13;0.90;;;18.90;51.60;;;;;;5039498;28;20037;-83
2022/07/28 04:07:39;;;;;;;1.10;0.90;;;18.90;51.60;;;;;;5068826;28;20036;-81
2022/07/28 04:10:07;;;;;;;0.88;0.85;;;18.90;51.60;;;;;;5072103;28;20028;-83
2022/07/28 04:12:55;;;;;;;1.83;1.13;;;18.80;51.60;;;;;;5019476;28;20033;-83
2022/07/28 04:15:22;;;;;;;1.98;1.10;;;18.80;51.80;;;;;;5007350;28;20099;-82
2022/07/28 04:17:48;;;;;;;1.50;1.00;;;18.80;51.70;;;;;;5066559;28;20468;-82
2022/07/28 04:20:15;;;;;;;1.45;0.98;;;18.80;51.80;;;;;;5066906;28;20037;-82
2022/07/28 04:22:42;;;;;;;1.25;1.00;;;18.80;51.80;;;;;;5036040;28;20044;-82
2022/07/28 04:25:08;;;;;;;1.33;1.00;;;18.80;51.90;;;;;;5066485;28;20064;-82
2022/07/28 04:27:35;;;;;;;1.15;1.05;;;18.80;51.90;;;;;;5052676;28;20033;-83
2022/07/28 04:30:04;;;;;;;0.80;0.80;;;18.80;51.90;;;;;;5073038;28;20605;-84
2022/07/28 04:32:29;;;;;;;1.10;1.00;;;18.70;51.90;;;;;;5052721;28;20021;-83
2022/07/28 04:34:55;;;;;;;1.23;0.90;;;18.70;51.90;;;;;;5050499;28;20040;-83
2022/07/28 04:37:21;;;;;;;1.67;0.90;;;18.70;52.00;;;;;;5030667;28;20052;-82
2022/07/28 04:39:48;;;;;;;1.75;1.13;;;18.70;52.00;;;;;;5024321;28;20033;-81
2022/07/28 04:42:15;;;;;;;1.48;1.30;;;18.70;52.00;;;;;;5040627;28;20041;-81
2022/07/28 04:44:41;;;;;;;1.00;0.95;;;18.70;52.10;;;;;;5080293;28;20033;-82
2022/07/28 04:47:08;;;;;;;1.55;1.00;;;18.60;52.00;;;;;;5054201;28;20029;-82
2022/07/28 04:49:33;;;;;;;1.27;0.90;;;18.60;52.10;;;;;;5085130;28;20035;-82
2022/07/28 04:51:59;;;;;;;1.88;1.05;;;18.60;52.10;;;;;;5046720;28;20037;-82
2022/07/28 04:54:25;;;;;;;1.23;1.00;;;18.60;52.10;;;;;;5052232;28;20574;-82
2022/07/28 04:56:51;;;;;;;0.80;0.80;;;18.60;52.20;;;;;;5047342;28;20036;-83
2022/07/28 04:59:17;;;;;;;1.63;1.05;;;18.60;52.20;;;;;;5061600;28;20098;-83
2022/07/28 05:01:43;;;;;;;0.73;0.73;;;18.60;52.20;;;;;;5064938;28;20033;-82
2022/07/28 05:04:09;;;;;;;1.42;1.00;;;18.60;52.20;;;;;;5068064;28;20021;-81
2022/07/28 05:06:35;;;;;;;1.52;1.10;;;18.60;52.30;;;;;;5036533;28;20392;-81
2022/07/28 05:09:01;;;;;;;1.13;0.95;;;18.60;52.30;;;;;;5052893;28;20090;-82
2022/07/28 05:11:26;;;;;;;1.70;1.10;;;18.60;52.30;;;;;;5050441;28;20120;-83
2022/07/28 05:13:52;;;;;;;1.15;0.90;;;18.60;52.30;;;;;;5070352;28;20111;-87
2022/07/28 05:16:19;;;;;;;0.95;0.95;;;18.60;52.40;;;;;;5055876;28;20028;-83
2022/07/28 05:18:44;;;;;;;1.73;1.15;;;18.60;52.40;;;;;;5067684;28;20033;-85
2022/07/28 05:21:10;;;;;;;1.67;1.00;;;18.60;52.40;;;;;;5072689;28;20523;-83
2022/07/28 05:23:36;;;;;;;1.10;0.90;;;18.60;52.40;;;;;;5067396;28;20124;-83
2022/07/28 05:26:03;;;;;;;1.70;1.05;;;18.60;52.50;;;;;;5055999;28;20037;-83
2022/07/28 05:28:29;;;;;;;1.00;0.90;;;18.60;52.50;;;;;;5070386;28;20048;-84
2022/07/28 05:30:55;;;;;;;1.00;0.90;;;18.60;52.50;;;;;;5041419;28;20016;-84
2022/07/28 05:33:21;;;;;;;1.83;1.20;;;18.60;52.50;;;;;;5071670;28;20028;-84
2022/07/28 05:35:53;;;;;;;2.38;1.10;;;18.60;52.60;;;;;;5062746;28;20361;-84
2022/07/28 05:38:19;;;;;;;1.52;0.90;;;18.60;52.70;;;;;;5063543;28;20076;-82
2022/07/28 05:40:47;;;;;;;1.05;0.90;;;18.60;52.60;;;;;;5069308;28;20044;-84
2022/07/28 05:43:12;;;;;;;1.50;1.20;;;18.60;52.70;;;;;;5079250;28;20036;-84
2022/07/28 05:45:38;;;;;;;1.35;1.13;;;18.60;52.70;;;;;;5038578;28;20036;-83
2022/07/28 05:48:04;;;;;;;1.73;1.10;;;18.60;52.70;;;;;;5053125;28;20020;-83
2022/07/28 05:50:30;;;;;;;1.67;1.00;;;18.60;52.80;;;;;;5049971;28;20025;-83
2022/07/28 05:52:56;;;;;;;1.75;1.00;;;18.60;52.80;;;;;;5061987;28;20040;-84
2022/07/28 05:55:21;;;;;;;1.75;1.10;;;18.60;52.80;;;;;;5032420;28;20040;-84
2022/07/28 05:57:48;;;;;;;0.98;0.93;;;18.60;52.80;;;;;;5045320;28;20460;-87
2022/07/28 06:00:16;;;;;;;1.70;1.10;;;18.60;52.80;;;;;;5048460;28;20469;-84
2022/07/28 06:02:47;;;;;;;1.20;1.00;;;18.60;52.90;;;;;;5051676;28;20028;-83
2022/07/28 06:05:18;;;;;;;1.38;1.10;;;18.60;52.90;;;;;;5058687;28;20037;-84
2022/07/28 06:07:45;;;;;;;1.20;1.02;;;18.60;52.90;;;;;;5053557;28;20448;-84
2022/07/28 06:10:13;;;;;;;1.83;1.10;;;18.60;52.90;;;;;;5056305;28;20024;-84
2022/07/28 06:12:43;;;;;;;1.20;1.10;;;18.60;52.90;;;;;;5036597;28;20045;-84
2022/07/28 06:15:20;;;;;;;1.45;0.93;;;18.60;53.00;;;;;;5038609;28;20652;-85
2022/07/28 06:17:46;;;;;;;1.20;0.95;;;18.60;53.10;;;;;;5056010;28;20020;-83
2022/07/28 06:20:13;;;;;;;2.10;1.30;;;18.60;53.00;;;;;;5050383;28;20079;-83
2022/07/28 06:22:53;;;;;;;2.60;1.00;;;18.70;53.10;;;;;;5070208;28;20127;-83
2022/07/28 06:25:20;;;;;;;1.00;0.85;;;18.70;53.20;;;;;;5047534;28;20058;-83
2022/07/28 06:27:47;;;;;;;2.90;1.17;;;18.70;53.10;;;;;;5046666;28;20116;-82
2022/07/28 06:30:14;;;;;;;1.85;1.23;;;18.70;53.10;;;;;;5025794;28;20041;-82
2022/07/28 06:32:39;;;;;;;1.15;0.98;;;18.70;53.10;;;;;;5024914;28;20025;-83
2022/07/28 06:35:06;;;;;;;1.20;1.10;;;18.70;53.20;;;;;;5021148;28;20381;-84
2022/07/28 06:37:32;;;;;;;1.95;1.08;;;18.70;53.20;;;;;;5051533;28;20036;-83
2022/07/28 06:39:58;;;;;;;1.50;1.10;;;18.70;53.20;;;;;;5064085;28;20071;-84
2022/07/28 06:42:24;;;;;;;2.15;1.17;;;18.70;53.20;;;;;;5035449;28;20492;-84
2022/07/28 06:44:50;;;;;;;2.25;1.20;;;18.70;53.20;;;;;;5048450;28;20024;-85
2022/07/28 06:47:17;;;;;;;0.82;0.82;;;18.70;53.30;;;;;;5069686;28;20025;-83
2022/07/28 06:49:43;;;;;;;0.88;0.80;;;18.80;53.30;;;;;;5065456;28;20107;-84
2022/07/28 06:52:09;;;;;;;1.70;1.10;;;18.80;53.40;;;;;;5041956;28;20424;-83
2022/07/28 06:54:35;;;;;;;1.00;1.00;;;18.80;53.40;;;;;;5057992;28;20021;-84
2022/07/28 06:57:02;;;;;;;1.25;0.90;;;18.80;53.40;;;;;;5035814;28;20041;-84
2022/07/28 06:59:28;;;;;;;1.33;0.93;;;18.80;53.40;;;;;;5048316;28;20379;-83
2022/07/28 07:01:54;;;;;;;0.93;0.80;;;18.80;53.40;;;;;;5046302;28;20460;-83
2022/07/28 07:04:20;;;;;;;1.60;1.02;;;18.80;53.40;;;;;;5051178;28;20025;-85
2022/07/28 07:06:46;;;;;;;1.10;1.00;;;18.90;53.40;;;;;;5077276;28;20099;-84
2022/07/28 07:09:11;;;;;;;0.93;0.93;;;18.90;53.40;;;;;;5071982;28;20092;-83
2022/07/28 07:11:37;;;;;;;2.00;0.98;;;18.90;53.40;;;;;;5068158;28;20523;-84
2022/07/28 07:14:03;;;;;;;1.77;1.00;;;19.00;53.40;;;;;;5065488;28;20033;-82
2022/07/28 07:16:29;;;;;;;1.05;0.90;;;19.00;54.00;;;;;;5063427;28;20036;-84
2022/07/28 07:18:54;;;;;;;0.77;0.77;;;19.00;53.40;;;;;;5053232;28;20044;-84
2022/07/28 07:21:21;;;;;;;2.38;1.30;;;19.00;53.40;;;;;;5048150;28;20044;-84
2022/07/28 07:23:48;;;;;;;1.33;0.90;;;19.10;53.40;;;;;;5055890;28;20102;-84
2022/07/28 07:26:14;;;;;;;1.20;0.90;;;19.10;53.40;;;;;;5054188;28;20082;-82
2022/07/28 07:28:41;;;;;;;1.55;0.82;;;19.10;53.30;;;;;;5072603;28;20041;-83
2022/07/28 07:31:07;;;;;;;0.73;0.70;;;19.20;53.40;;;;;;5048988;28;20465;-83
2022/07/28 07:33:32;;;;;;;0.70;0.70;;;19.20;53.30;;;;;;5047068;28;20028;-82
2022/07/28 07:35:58;;;;;;;1.73;0.90;;;19.20;53.40;;;;;;5071807;28;20043;-83
2022/07/28 07:38:24;;;;;;;2.50;0.88;;;19.30;53.30;;;;;;5054211;28;20037;-83
2022/07/28 07:40:50;;;;;;;1.00;0.85;;;19.30;53.20;;;;;;5056895;28;20135;-83
2022/07/28 07:43:17;;;;;;;1.00;0.73;;;19.30;53.20;;;;;;5040482;28;20032;-83
2022/07/28 07:45:43;;;;;;;1.73;0.90;;;19.30;53.10;;;;;;5036236;28;20028;-85
2022/07/28 07:48:09;;;;;;;1.70;1.02;;;19.40;53.10;;;;;;5048056;28;20496;-84
2022/07/28 07:50:36;;;;;;;2.10;0.98;;;19.40;53.10;;;;;;5054221;28;20118;-83
2022/07/28 07:53:02;;;;;;;1.20;0.80;;;19.50;53.10;;;;;;5071068;28;20500;-84
2022/07/28 07:55:28;;;;;;;1.35;1.00;;;19.50;53.00;;;;;;5069749;28;20032;-83
2022/07/28 07:57:53;;;;;;;0.82;0.80;;;19.50;53.00;;;;;;5070056;28;20070;-84
2022/07/28 08:00:20;;;;;;;0.82;0.82;;;19.60;52.90;;;;;;5033391;28;20057;-83
2022/07/28 08:02:46;;;;;;;0.90;0.80;;;19.60;52.90;;;;;;5063323;28;20027;-84
2022/07/28 08:05:13;;;;;;;1.20;0.80;;;19.70;52.80;;;;;;5070592;28;20368;-84
2022/07/28 08:07:39;;;;;;;1.25;0.80;;;19.70;52.70;;;;;;5053248;28;20025;-84
2022/07/28 08:10:05;;;;;;;1.25;0.70;;;19.70;52.70;;;;;;5069992;28;20103;-84
2022/07/28 08:12:32;;;;;;;1.10;0.73;;;19.80;52.60;;;;;;5036128;28;20031;-84
2022/07/28 08:14:58;;;;;;;0.80;0.80;;;19.80;52.50;;;;;;5069384;28;20032;-84
2022/07/28 08:17:23;;;;;;;1.20;0.82;;;19.90;52.50;;;;;;5040928;28;20461;-84
2022/07/28 08:19:49;;;;;;;0.75;0.73;;;19.90;52.40;;;;;;5074142;28;20056;-83
2022/07/28 08:22:16;;;;;;;1.05;0.75;;;20.00;52.30;;;;;;5071663;28;20604;-84
2022/07/28 08:24:41;;;;;;;1.63;1.00;;;20.00;52.20;;;;;;5048652;28;20427;-84
2022/07/28 08:27:08;;;;;;;1.30;0.75;;;20.10;52.20;;;;;;5068225;28;20028;-84
2022/07/28 08:29:34;;;;;;;0.93;0.70;;;20.10;52.10;;;;;;5071476;28;20037;-84
2022/07/28 08:32:02;;;;;;;1.02;0.90;;;20.20;52.00;;;;;;5066987;28;20032;-84
2022/07/28 08:34:29;;;;;;;1.85;0.90;;;20.20;52.00;;;;;;5070551;28;20036;-84
2022/07/28 08:36:55;;;;;;;1.02;0.82;;;20.30;51.90;;;;;;5050304;28;20013;-83
2022/07/28 08:39:21;;;;;;;1.23;0.60;;;20.30;51.70;;;;;;5051964;28;20052;-83
2022/07/28 08:41:57;;;;;;;0.73;0.73;;;20.40;51.70;;;;;;5074428;28;20039;-83
2022/07/28 08:44:32;;;;;;;1.00;0.80;;;20.40;51.60;;;;;;5059441;28;20052;-83
2022/07/28 08:46:58;;;;;;;1.13;0.80;;;20.50;51.50;;;;;;5067750;28;20029;-85
2022/07/28 08:49:25;;;;;;;1.65;1.05;;;20.60;51.40;;;;;;5069483;28;20029;-84
2022/07/28 08:51:53;;;;;;;1.38;0.90;;;20.60;51.30;;;;;;5030382;28;20035;-83
2022/07/28 08:54:25;;;;;;;1.10;0.70;;;20.70;51.30;;;;;;5071894;28;20026;-85
2022/07/28 08:56:51;;;;;;;1.25;0.80;;;20.80;51.20;;;;;;5053611;28;20027;-84
2022/07/28 08:59:17;;;;;;;0.95;0.82;;;20.80;51.00;;;;;;5070143;28;20091;-83
2022/07/28 09:01:43;;;;;;;0.60;0.60;;;20.90;50.90;;;;;;5038924;28;20476;-83
2022/07/28 09:04:09;;;;;;;1.48;0.65;;;21.00;50.90;;;;;;5067077;28;20048;-85
2022/07/28 09:06:40;;;;;;;0.85;0.77;;;21.10;50.80;;;;;;5034640;28;20079;-88
2022/07/28 09:09:08;;;;;;;0.75;0.75;;;21.20;50.80;;;;;;5049995;28;20466;-83
2022/07/28 09:11:38;;;;;;;0.80;0.80;;;21.20;50.60;;;;;;5040841;28;20036;-83
2022/07/28 09:14:04;;;;;;;0.70;0.70;;;21.30;50.60;;;;;;5032509;28;20489;-83
2022/07/28 09:16:31;;;;;;;0.50;0.50;;;21.40;50.50;;;;;;5015483;28;20033;-82
2022/07/28 09:18:57;;;;;;;1.70;0.80;;;21.50;50.40;;;;;;5021964;28;20578;-87
2022/07/28 09:21:23;;;;;;;0.65;0.60;;;21.60;50.40;;;;;;5036676;28;20037;-83
2022/07/28 09:23:49;;;;;;;1.23;0.73;;;21.60;50.30;;;;;;5057621;28;20028;-83
2022/07/28 09:26:16;;;;;;;0.77;0.77;;;21.70;50.20;;;;;;5031469;28;20090;-83
2022/07/28 09:28:53;;;;;;;1.10;0.80;;;21.80;50.20;;;;;;5019099;28;20052;-84
2022/07/28 09:31:21;;;;;;;0.60;0.60;;;21.90;50.10;;;;;;5031028;28;20412;-84
2022/07/28 09:33:54;;;;;;;0.77;0.77;;;21.90;50.00;;;;;;5028082;28;20457;-83
2022/07/28 09:36:19;;;;;;;1.17;0.77;;;22.00;49.90;;;;;;5018854;28;20465;-83
2022/07/28 09:38:46;;;;;;;1.08;0.70;;;22.10;49.80;;;;;;5049106;28;20109;-82
2022/07/28 09:41:13;;;;;;;1.25;0.65;;;22.10;49.70;;;;;;5045369;28;20114;-81
2022/07/28 09:43:43;;;;;;;0.70;0.70;;;22.20;49.60;;;;;;5044841;28;20029;-83
2022/07/28 09:46:14;;;;;;;0.95;0.80;;;22.20;49.50;;;;;;5022347;28;20033;-83
2022/07/28 09:48:49;;;;;;;0.85;0.60;;;22.30;49.50;;;;;;5055404;28;20021;-84
2022/07/28 09:51:18;;;;;;;1.23;1.08;;;22.40;49.50;;;;;;5048605;28;20036;-84
2022/07/28 09:53:44;;;;;;;0.88;0.80;;;22.40;49.30;;;;;;5030522;28;20087;-83
2022/07/28 09:56:11;;;;;;;0.82;0.70;;;22.50;49.20;;;;;;5056781;28;20581;-82
2022/07/28 09:58:38;;;;;;;0.95;0.68;;;22.60;49.20;;;;;;5030695;28;20048;-82
2022/07/28 10:01:20;;;;;;;0.80;0.80;;;22.70;49.10;;;;;;5043901;28;20060;-83
2022/07/28 10:03:52;;;;;;;0.73;0.60;;;22.80;49.10;;;;;;5040093;28;20022;-84
2022/07/28 10:06:30;;;;;;;1.02;0.70;;;22.80;48.90;;;;;;5060980;28;20052;-83
2022/07/28 10:08:59;;;;;;;1.20;0.70;;;22.90;48.90;;;;;;5069110;28;20028;-82
2022/07/28 10:11:26;;;;;;;1.38;0.60;;;23.00;48.80;;;;;;5035804;28;20432;-83
2022/07/28 10:14:05;;;;;;;0.70;0.70;;;23.00;48.60;;;;;;5058259;28;20017;-82
2022/07/28 10:16:33;;;;;;;0.57;0.57;;;23.20;48.80;;;;;;5040699;28;20096;-82
2022/07/28 10:19:01;;;;;;;0.90;0.50;;;23.20;48.60;;;;;;5052836;28;20416;-83
2022/07/28 10:21:29;;;;;;;0.60;0.60;;;23.30;48.50;;;;;;5052458;28;20024;-83
2022/07/28 10:23:58;;;;;;;0.70;0.70;;;23.40;49.10;;;;;;5073655;28;20028;-82
2022/07/28 10:26:31;;;;;;;0.85;0.75;;;23.50;48.40;;;;;;5035764;28;20130;-82
2022/07/28 10:29:02;;;;;;;0.73;0.52;;;23.60;48.30;;;;;;5058691;28;20116;-81
2022/07/28 10:31:44;;;;;;;0.50;0.50;;;23.60;48.10;;;;;;5072729;28;20025;-83
2022/07/28 10:34:22;;;;;;;0.88;0.77;;;23.70;48.10;;;;;;5070795;28;20032;-83
2022/07/28 10:36:49;;;;;;;0.75;0.73;;;23.80;48.00;;;;;;5034333;28;20088;-84
2022/07/28 10:39:18;;;;;;;0.70;0.70;;;23.90;47.90;;;;;;5035717;28;20033;-84
2022/07/28 10:41:45;;;;;;;3.13;0.70;;;24.00;47.80;;;;;;5055811;28;20059;-82
2022/07/28 10:44:16;;;;;;;0.65;0.65;;;24.10;47.70;;;;;;5044681;28;20480;-82
2022/07/28 10:46:43;;;;;;;0.82;0.70;;;24.20;47.70;;;;;;5041465;28;20033;-83
2022/07/28 10:49:11;;;;;;;0.60;0.60;;;24.20;47.50;;;;;;5066897;28;20028;-83
2022/07/28 10:51:40;;;;;;;1.02;0.70;;;24.40;47.50;;;;;;5066194;28;20105;-83
2022/07/28 10:54:26;;;;;;;0.55;0.55;;;24.40;47.50;;;;;;5071861;28;20458;-81
2022/07/28 10:56:55;;;;;;;1.02;0.70;;;24.50;47.50;;;;;;5053429;28;20024;-84
2022/07/28 10:59:40;;;;;;;0.50;0.50;;;24.60;47.40;;;;;;5052535;28;20543;-84
2022/07/28 11:02:06;;;;;;;0.68;0.60;;;24.70;47.30;;;;;;5055706;28;20373;-84
2022/07/28 11:04:47;;;;;;;0.60;0.55;;;24.80;47.20;;;;;;5042245;28;20018;-86
2022/07/28 11:07:15;;;;;;;0.60;0.60;;;24.80;47.20;;;;;;5061672;28;20241;-83
2022/07/28 11:09:42;;;;;;;0.50;0.50;;;24.90;47.00;;;;;;5040081;28;20075;-84
2022/07/28 11:12:08;;;;;;;0.60;0.60;;;25.00;47.00;;;;;;5066535;28;20032;-84
2022/07/28 11:14:36;;;;;;;0.65;0.65;;;25.00;46.90;;;;;;5079684;28;20055;-84
2022/07/28 11:17:05;;;;;;;0.50;0.50;;;25.10;46.90;;;;;;5056642;28;20523;-86
2022/07/28 11:19:42;;;;;;;0.50;0.50;;;25.10;46.80;;;;;;5056325;28;20040;-83
2022/07/28 11:22:20;;;;;;;0.52;0.52;;;25.30;46.90;;;;;;5046042;28;20029;-86
2022/07/28 11:27:44;;;;;;;0.98;0.70;;;25.30;46.80;;;;;;5074577;28;20115;-85
2022/07/28 11:30:10;;;;;;;0.60;0.60;;;25.40;46.80;;;;;;5056483;28;20031;-83
2022/07/28 11:32:54;;;;;;;0.73;0.50;;;25.40;46.60;;;;;;5079909;28;20032;-83
2022/07/28 11:35:21;;;;;;;0.80;0.60;;;25.40;46.60;;;;;;5040270;28;20540;-84
2022/07/28 11:37:59;;;;;;;0.75;0.60;;;25.40;46.50;;;;;;5039454;28;20063;-84
2022/07/28 11:40:36;;;;;;;0.50;0.50;;;25.50;46.60;;;;;;5077420;28;20067;-84
2022/07/28 11:43:21;;;;;;;0.60;0.50;;;25.50;46.60;;;;;;5073155;28;20036;-85
2022/07/28 11:45:47;;;;;;;0.57;0.57;;;25.50;46.70;;;;;;5064013;28;20039;-87
2022/07/28 11:48:13;;;;;;;0.90;0.60;;;25.60;46.70;;;;;;5059957;28;20032;-87
2022/07/28 11:50:40;;;;;;;0.60;0.60;;;25.60;46.70;;;;;;5057755;28;20126;-83
2022/07/28 11:53:05;;;;;;;0.60;0.60;;;25.60;46.70;;;;;;5054180;28;20543;-85
2022/07/28 11:55:32;;;;;;;0.55;0.55;;;25.60;46.80;;;;;;5055098;28;20040;-84
2022/07/28 11:58:01;;;;;;;0.93;0.80;;;25.70;46.90;;;;;;5058436;28;20031;-85
2022/07/28 12:00:28;;;;;;;0.70;0.70;;;25.70;46.90;;;;;;5075067;28;20649;-83
2022/07/28 12:02:54;;;;;;;0.70;0.60;;;25.70;46.90;;;;;;5035942;28;20115;-85
2022/07/28 12:05:21;;;;;;;0.52;0.52;;;25.70;47.00;;;;;;5045963;28;20016;-85
2022/07/28 12:07:49;;;;;;;2.50;0.70;;;25.70;47.00;;;;;;5055436;28;20112;-84
2022/07/28 12:10:41;;;;;;;0.70;0.55;;;25.70;47.00;;;;;;5059914;28;20154;-84
2022/07/28 12:13:07;;;;;;;0.70;0.70;;;25.70;47.10;;;;;;5074534;28;20036;-84
2022/07/28 12:15:33;;;;;;;0.68;0.50;;;25.80;47.00;;;;;;5058963;28;20032;-84
2022/07/28 12:18:00;;;;;;;0.73;0.70;;;25.80;47.00;;;;;;5058391;28;20016;-84
2022/07/28 12:20:30;;;;;;;1.27;0.68;;;25.80;47.00;;;;;;5058211;28;20472;-87
2022/07/28 12:23:05;;;;;;;1.02;0.60;;;25.70;46.80;;;;;;5040225;28;20025;-87
2022/07/28 12:25:40;;;;;;;0.60;0.50;;;25.70;46.80;;;;;;5037455;28;20025;-84
2022/07/28 12:28:18;;;;;;;0.57;0.57;;;25.80;46.80;;;;;;5074739;28;20111;-84
2022/07/28 12:30:45;;;;;;;0.68;0.50;;;25.80;46.80;;;;;;5040979;28;20175;-86
2022/07/28 12:33:18;;;;;;;0.68;0.60;;;25.80;46.80;;;;;;5058044;28;20060;-85
2022/07/28 12:35:44;;;;;;;0.70;0.60;;;25.80;46.80;;;;;;5055233;28;20025;-85
2022/07/28 12:38:10;;;;;;;1.08;0.60;;;25.80;46.80;;;;;;5060927;28;20392;-85
2022/07/28 12:40:38;;;;;;;0.50;0.50;;;25.80;46.80;;;;;;5051323;28;20044;-85
2022/07/28 12:43:04;;;;;;;0.68;0.68;;;25.80;46.80;;;;;;5078203;28;20047;-83
2022/07/28 12:45:32;;;;;;;0.70;0.70;;;25.80;46.80;;;;;;5084165;28;20468;-85
2022/07/28 12:48:07;;;;;;;1.55;0.73;;;25.80;46.70;;;;;;5073762;28;20036;-85
2022/07/28 12:50:37;;;;;;;2.05;0.80;;;25.80;46.70;;;;;;5038569;28;20112;-86
2022/07/28 12:53:08;;;;;;;0.70;0.50;;;25.80;46.70;;;;;;5067072;28;20048;-85
2022/07/28 12:55:34;;;;;;;0.50;0.50;;;25.80;46.70;;;;;;5044467;28;20875;-86
2022/07/28 12:58:00;;;;;;;0.63;0.63;;;25.90;46.70;;;;;;5038878;28;20044;-83
2022/07/28 13:00:32;;;;;;;0.52;0.50;;;25.90;46.70;;;;;;5053493;28;20089;-86